Barra de Sao Francisco, Brazil
Current Conditions -  °F | °C
As of 1:00 AM on Monday 22 Dec 2014 (Local Time) from SBVT Reporting Station
Scattered Clouds Scattered Clouds  
Wind Chill: 79°   Ceiling: Unl
Heat Index: 81°   Visibility: 6mi
Dew Point: 70°   Wind: 12mph
Humidity: 74%   Direction: 20°NNE
Pressure: 29.91"   Gusts: NA
Location:  18.75°S, 40.87°W
Report Text: SBVT 220300Z 02010KT 9999 FEW025 SCT100 26/21 Q1013
Loading
Personal Weather Stations






























Interactive Weather Map New forecast layout! Learn more

10-Day Weather Forecast

Advertisements
Track Severe Weather on mobile